createdAt,value
2023-03-31T00:01:42.410Z,99734.66
2023-03-31T00:04:10.468Z,99741.72
2023-03-31T00:06:38.163Z,99725.50
2023-03-31T00:09:11.754Z,99727.72
2023-03-31T00:11:39.769Z,99728.09
2023-03-31T00:14:08.683Z,99723.44
2023-03-31T00:16:37.012Z,99718.44
2023-03-31T00:19:04.729Z,99718.69
2023-03-31T00:21:31.977Z,99710.94
2023-03-31T00:24:01.572Z,99711.41
2023-03-31T00:26:29.139Z,99716.31
2023-03-31T00:28:56.752Z,99714.97
2023-03-31T00:31:24.684Z,99715.97
2023-03-31T00:33:51.430Z,99712.06
2023-03-31T00:36:18.307Z,99706.25
2023-03-31T00:38:45.202Z,99701.53
2023-03-31T00:41:11.841Z,99697.47
2023-03-31T00:43:38.898Z,99702.41
2023-03-31T00:46:23.629Z,99701.22
2023-03-31T00:48:55.233Z,99701.56
2023-03-31T00:51:24.449Z,99700.00
2023-03-31T00:53:55.806Z,99701.03
2023-03-31T00:56:22.506Z,99695.22
2023-03-31T00:58:49.528Z,99699.94
2023-03-31T01:01:20.894Z,99700.34
2023-03-31T01:03:48.259Z,99695.22
2023-03-31T01:06:17.993Z,99696.91
2023-03-31T01:08:44.632Z,99696.91
2023-03-31T01:11:17.413Z,99691.66
2023-03-31T01:13:44.517Z,99692.03
2023-03-31T01:16:11.121Z,99690.81
2023-03-31T01:18:38.141Z,99686.31
2023-03-31T01:21:18.884Z,99682.28
2023-03-31T01:24:10.024Z,99681.03
2023-03-31T01:26:48.791Z,99685.75
2023-03-31T01:29:27.469Z,99686.06
2023-03-31T01:32:27.696Z,99684.38
2023-03-31T01:35:09.944Z,99692.63
2023-03-31T01:37:53.712Z,99696.31
2023-03-31T01:40:29.466Z,99685.22
2023-03-31T01:43:03.613Z,99693.63
2023-03-31T01:45:42.431Z,99695.41
2023-03-31T01:48:16.371Z,99682.88
2023-03-31T01:50:57.422Z,99690.09
2023-03-31T01:53:41.115Z,99679.88
2023-03-31T01:56:33.155Z,99691.78
2023-03-31T01:59:29.901Z,99684.47
2023-03-31T02:02:06.647Z,99684.16
2023-03-31T02:04:39.681Z,99684.63
2023-03-31T02:07:15.589Z,99675.28
2023-03-31T02:09:47.250Z,99684.69
2023-03-31T02:12:16.093Z,99676.50
2023-03-31T02:14:47.382Z,99684.00
2023-03-31T02:17:19.504Z,99678.28
2023-03-31T02:19:51.015Z,99679.00
2023-03-31T02:22:21.422Z,99675.69
2023-03-31T02:24:51.515Z,99682.16
2023-03-31T02:27:26.110Z,99677.25
2023-03-31T02:29:54.215Z,99669.19
2023-03-31T02:32:33.003Z,99673.44
2023-03-31T02:35:00.830Z,99661.59
2023-03-31T02:37:30.372Z,99671.88
2023-03-31T02:40:00.476Z,99668.53
2023-03-31T02:42:27.388Z,99673.00
2023-03-31T02:44:54.061Z,99668.53
2023-03-31T02:47:22.128Z,99670.19
2023-03-31T02:49:54.620Z,99662.84
2023-03-31T02:52:33.389Z,99657.06
2023-03-31T02:55:12.138Z,99658.78
2023-03-31T02:58:14.903Z,99661.94
2023-03-31T03:01:10.701Z,99658.03
2023-03-31T03:04:06.421Z,99665.50
2023-03-31T03:07:03.364Z,99665.41
2023-03-31T03:09:57.046Z,99657.91
2023-03-31T03:12:38.461Z,99647.78
2023-03-31T03:15:17.325Z,99655.66
2023-03-31T03:17:48.747Z,99658.91
2023-03-31T03:20:16.080Z,99649.22
2023-03-31T03:22:42.889Z,99655.53
2023-03-31T03:25:11.962Z,99657.13
2023-03-31T03:27:38.961Z,99655.63
2023-03-31T03:30:08.749Z,99654.78
2023-03-31T03:32:35.405Z,99646.41
2023-03-31T03:35:02.864Z,99654.13
2023-03-31T03:37:30.540Z,99651.56
2023-03-31T03:39:57.287Z,99655.44
2023-03-31T03:42:23.985Z,99657.34
2023-03-31T03:44:50.847Z,99648.31
2023-03-31T03:47:17.606Z,99652.97
2023-03-31T03:49:44.226Z,99647.91
2023-03-31T03:52:10.853Z,99647.19
2023-03-31T03:54:37.453Z,99658.91
2023-03-31T03:57:04.618Z,99648.44
2023-03-31T03:59:31.232Z,99663.78
2023-03-31T04:01:57.918Z,99651.22
2023-03-31T04:04:24.856Z,99662.72
2023-03-31T04:06:51.987Z,99658.47
2023-03-31T04:09:18.638Z,99663.13
2023-03-31T04:11:45.284Z,99667.06
2023-03-31T04:14:12.019Z,99662.97
2023-03-31T04:16:38.804Z,99659.56
2023-03-31T04:19:05.441Z,99661.31
2023-03-31T04:21:32.317Z,99652.91
2023-03-31T04:23:59.004Z,99649.78
2023-03-31T04:26:28.260Z,99647.53
2023-03-31T04:28:54.851Z,99655.13
2023-03-31T04:31:21.767Z,99652.06
2023-03-31T04:33:48.415Z,99647.91
2023-03-31T04:36:15.199Z,99649.94
2023-03-31T04:38:41.886Z,99640.50
2023-03-31T04:41:08.477Z,99628.25
2023-03-31T04:43:35.076Z,99637.19
2023-03-31T04:46:01.831Z,99631.03
2023-03-31T04:48:28.452Z,99632.63
2023-03-31T04:50:55.260Z,99639.66
2023-03-31T04:53:22.100Z,99638.81
2023-03-31T04:55:49.825Z,99637.25
2023-03-31T04:58:16.902Z,99637.81
2023-03-31T05:00:43.873Z,99638.38
2023-03-31T05:03:10.704Z,99642.66
2023-03-31T05:05:37.848Z,99634.81
2023-03-31T05:08:04.802Z,99633.00
2023-03-31T05:10:32.271Z,99632.22
2023-03-31T05:12:58.922Z,99637.16
2023-03-31T05:15:25.567Z,99623.63
2023-03-31T05:17:52.815Z,99634.84
2023-03-31T05:20:20.072Z,99621.41
2023-03-31T05:22:47.280Z,99631.00
2023-03-31T05:25:14.879Z,99626.41
2023-03-31T05:27:41.728Z,99636.38
2023-03-31T05:30:08.942Z,99635.09
2023-03-31T05:32:35.667Z,99634.28
2023-03-31T05:35:02.460Z,99630.59
2023-03-31T05:37:29.723Z,99627.97
2023-03-31T05:39:56.326Z,99627.00
2023-03-31T05:42:23.041Z,99624.13
2023-03-31T05:44:49.825Z,99622.88
2023-03-31T05:47:16.832Z,99622.75
2023-03-31T05:49:43.715Z,99621.59
2023-03-31T05:52:11.446Z,99610.38
2023-03-31T05:54:38.043Z,99612.19
2023-03-31T05:57:04.688Z,99609.97
2023-03-31T05:59:31.436Z,99609.41
2023-03-31T06:01:58.178Z,99613.50
2023-03-31T06:04:25.013Z,99615.94
2023-03-31T06:06:51.675Z,99618.38
2023-03-31T06:09:18.313Z,99611.59
2023-03-31T06:11:45.019Z,99609.66
2023-03-31T06:14:11.852Z,99607.22
2023-03-31T06:16:38.871Z,99616.16
2023-03-31T06:19:05.516Z,99609.84
2023-03-31T06:21:32.424Z,99609.19
2023-03-31T06:23:59.198Z,99605.06
2023-03-31T06:26:26.438Z,99614.91
2023-03-31T06:28:53.247Z,99611.16
2023-03-31T06:31:23.149Z,99603.06
2023-03-31T06:33:49.967Z,99610.78
2023-03-31T06:36:18.704Z,99610.50
2023-03-31T06:38:45.962Z,99602.66
2023-03-31T06:41:14.416Z,99598.34
2023-03-31T06:43:41.101Z,99600.97
2023-03-31T06:46:08.585Z,99603.41
2023-03-31T06:48:35.620Z,99601.13
2023-03-31T06:51:04.660Z,99605.31
2023-03-31T06:53:32.031Z,99602.88
2023-03-31T06:55:58.767Z,99599.47
2023-03-31T06:58:25.744Z,99597.34
2023-03-31T07:00:52.983Z,99600.56
2023-03-31T07:03:19.699Z,99597.81
2023-03-31T07:05:51.002Z,99598.97
2023-03-31T07:08:18.222Z,99605.81
2023-03-31T07:10:45.619Z,99609.19
2023-03-31T07:13:12.580Z,99616.31
2023-03-31T07:15:39.284Z,99623.09
2023-03-31T07:18:09.105Z,99623.94
2023-03-31T07:20:35.943Z,99616.19
2023-03-31T07:23:05.150Z,99613.75
2023-03-31T07:25:32.011Z,99617.56
2023-03-31T07:27:58.644Z,99604.13
2023-03-31T07:30:25.368Z,99601.91
2023-03-31T07:32:52.925Z,99597.00
2023-03-31T07:35:19.765Z,99595.72
2023-03-31T07:37:48.601Z,99593.06
2023-03-31T07:40:19.646Z,99590.06
2023-03-31T07:42:47.907Z,99591.09
2023-03-31T07:45:17.036Z,99587.59
2023-03-31T07:47:44.672Z,99578.81
2023-03-31T07:50:12.606Z,99581.19
2023-03-31T07:52:40.154Z,99574.44
2023-03-31T07:55:07.602Z,99576.38
2023-03-31T07:57:35.823Z,99567.09
2023-03-31T08:00:07.439Z,99568.94
2023-03-31T08:02:34.633Z,99568.66
2023-03-31T08:05:01.437Z,99567.63
2023-03-31T08:07:28.179Z,99567.63
2023-03-31T08:09:54.970Z,99555.41
2023-03-31T08:12:21.717Z,99562.03
2023-03-31T08:14:48.317Z,99559.34
2023-03-31T08:17:14.924Z,99552.91
2023-03-31T08:19:41.650Z,99543.72
2023-03-31T08:22:08.284Z,99536.97
2023-03-31T08:24:34.984Z,99530.75
2023-03-31T08:27:01.680Z,99531.13
2023-03-31T08:29:28.542Z,99523.31
2023-03-31T08:31:55.451Z,99532.84
2023-03-31T08:34:22.121Z,99525.75
2023-03-31T08:36:48.723Z,99527.47
2023-03-31T08:39:15.460Z,99519.72
2023-03-31T08:41:42.000Z,99517.47
2023-03-31T08:44:29.279Z,99507.41
2023-03-31T08:46:58.578Z,99501.44
2023-03-31T08:49:27.083Z,99507.19
2023-03-31T08:52:00.018Z,99494.56
2023-03-31T08:54:32.015Z,99494.28
2023-03-31T08:56:59.001Z,99477.56
2023-03-31T08:59:36.277Z,99480.75
2023-03-31T09:02:25.205Z,99473.25
2023-03-31T09:05:10.935Z,99475.28
2023-03-31T09:07:47.135Z,99462.91
2023-03-31T09:10:25.820Z,99464.41
2023-03-31T09:13:04.621Z,99455.94
2023-03-31T09:15:47.350Z,99454.22
2023-03-31T09:18:31.740Z,99450.81
2023-03-31T09:21:14.412Z,99437.47
2023-03-31T09:23:49.680Z,99441.25
2023-03-31T09:26:55.861Z,99437.66
2023-03-31T09:29:29.049Z,99436.78
2023-03-31T09:32:01.958Z,99431.34
2023-03-31T09:34:32.516Z,99436.44
2023-03-31T09:36:59.239Z,99431.78
2023-03-31T09:39:26.626Z,99425.53
2023-03-31T09:41:53.629Z,99418.66
2023-03-31T09:44:38.437Z,99416.31
2023-03-31T09:47:13.967Z,99420.22
2023-03-31T09:49:54.019Z,99415.56
2023-03-31T09:52:33.099Z,99410.53
2023-03-31T09:55:02.518Z,99409.81
2023-03-31T09:57:40.355Z,99407.53
2023-03-31T10:00:17.338Z,99403.88
2023-03-31T10:02:55.845Z,99401.78
2023-03-31T10:05:28.446Z,99404.06
2023-03-31T10:08:18.770Z,99382.72
2023-03-31T10:11:10.390Z,99388.78
2023-03-31T10:13:45.622Z,99374.94
2023-03-31T10:16:33.372Z,99371.94
2023-03-31T10:19:24.188Z,99372.56
2023-03-31T10:22:02.970Z,99365.44
2023-03-31T10:25:10.355Z,99355.66
2023-03-31T10:27:40.661Z,99351.75
2023-03-31T10:30:12.181Z,99343.97
2023-03-31T10:32:43.214Z,99346.88
2023-03-31T10:35:21.790Z,99351.34
2023-03-31T10:37:51.206Z,99343.78
2023-03-31T10:40:20.666Z,99343.22
2023-03-31T10:43:10.260Z,99331.22
2023-03-31T10:45:43.229Z,99334.00
2023-03-31T10:48:24.583Z,99334.94
2023-03-31T10:50:51.359Z,99330.03
2023-03-31T10:53:19.235Z,99328.03
2023-03-31T10:56:04.566Z,99330.06
2023-03-31T10:59:06.694Z,99321.22
2023-03-31T11:01:51.749Z,99321.91
2023-03-31T11:04:46.371Z,99319.00
2023-03-31T11:07:49.311Z,99312.69
2023-03-31T11:10:34.008Z,99303.38
2023-03-31T11:13:34.443Z,99298.06
2023-03-31T11:16:21.332Z,99298.63
2023-03-31T11:19:02.933Z,99301.81
2023-03-31T11:21:50.721Z,99294.25
2023-03-31T11:24:24.791Z,99288.75
2023-03-31T11:27:22.013Z,99286.31
2023-03-31T11:30:03.605Z,99279.47
2023-03-31T11:32:31.436Z,99263.88
2023-03-31T11:35:19.570Z,99257.53
2023-03-31T11:38:16.770Z,99252.44
2023-03-31T11:40:52.373Z,99246.31
2023-03-31T11:43:33.436Z,99229.50
2023-03-31T11:46:24.469Z,99223.06
2023-03-31T11:48:52.025Z,99206.59
2023-03-31T11:51:44.905Z,99193.88
2023-03-31T11:54:20.740Z,99191.44
2023-03-31T11:56:47.516Z,99195.00
2023-03-31T11:59:17.182Z,99180.41
2023-03-31T12:02:18.325Z,99187.22
2023-03-31T12:04:52.329Z,99183.94
2023-03-31T12:07:31.829Z,99179.44
2023-03-31T12:10:05.056Z,99172.03
2023-03-31T12:12:44.361Z,99173.31
2023-03-31T12:15:23.022Z,99165.53
2023-03-31T12:17:59.392Z,99164.59
2023-03-31T12:20:32.652Z,99158.31
2023-03-31T12:23:02.767Z,99159.78
2023-03-31T12:25:47.447Z,99157.63
2023-03-31T12:28:15.837Z,99145.91
2023-03-31T12:30:44.239Z,99146.81
2023-03-31T12:33:25.474Z,99153.38
2023-03-31T12:36:18.902Z,99158.81
2023-03-31T12:39:06.978Z,99142.16
2023-03-31T12:42:04.324Z,99132.75
2023-03-31T12:44:50.920Z,99137.09
2023-03-31T12:47:32.431Z,99131.69
2023-03-31T12:50:26.356Z,99126.47
2023-03-31T12:53:21.014Z,99112.25
2023-03-31T12:55:56.403Z,99108.50
2023-03-31T12:58:23.027Z,99102.09
2023-03-31T13:01:13.982Z,99103.38
2023-03-31T13:03:42.979Z,99097.00
2023-03-31T13:06:29.824Z,99091.38
2023-03-31T13:08:58.111Z,99085.78
2023-03-31T13:11:33.805Z,99093.16
2023-03-31T13:14:24.067Z,99084.09
2023-03-31T13:16:54.297Z,99079.78
2023-03-31T13:19:33.962Z,99079.00
2023-03-31T13:22:03.468Z,99083.38
2023-03-31T13:24:31.632Z,99061.72
2023-03-31T13:27:45.788Z,99060.59
2023-03-31T13:30:41.107Z,99048.06
2023-03-31T13:33:28.872Z,99043.31
2023-03-31T13:36:19.592Z,99041.22
2023-03-31T13:39:17.098Z,99028.75
2023-03-31T13:42:12.880Z,99039.38
2023-03-31T13:45:11.830Z,99013.41
2023-03-31T13:48:01.041Z,99022.00
2023-03-31T13:51:13.332Z,99002.06
2023-03-31T13:54:08.011Z,98995.56
2023-03-31T13:57:03.516Z,98989.53
2023-03-31T13:59:48.806Z,98990.34
2023-03-31T14:02:30.363Z,98982.63
2023-03-31T14:05:00.024Z,98987.41
2023-03-31T14:07:40.708Z,98979.81
2023-03-31T14:10:31.433Z,98983.25
2023-03-31T14:13:09.923Z,98971.91
2023-03-31T14:15:49.292Z,98957.84
2023-03-31T14:18:23.569Z,98955.78
2023-03-31T14:20:59.973Z,98953.13
2023-03-31T14:23:58.451Z,98958.00
2023-03-31T14:26:37.399Z,98949.13
2023-03-31T14:29:21.135Z,98931.31
2023-03-31T14:32:18.773Z,98929.81
2023-03-31T14:35:00.871Z,98921.63
2023-03-31T14:37:27.667Z,98917.50
2023-03-31T14:39:55.880Z,98905.56
2023-03-31T14:42:27.441Z,98900.97
2023-03-31T14:44:58.580Z,98913.13
2023-03-31T14:47:27.417Z,98905.81
2023-03-31T14:50:16.435Z,98897.47
2023-03-31T14:52:51.409Z,98895.16
2023-03-31T14:55:25.241Z,98900.69
2023-03-31T14:57:58.493Z,98888.91
2023-03-31T15:00:29.849Z,98891.97
2023-03-31T15:02:58.319Z,98891.34
2023-03-31T15:05:34.191Z,98884.09
2023-03-31T15:08:26.997Z,98883.97
2023-03-31T15:11:12.011Z,98884.22
2023-03-31T15:13:56.726Z,98881.06
2023-03-31T15:16:41.802Z,98877.31
2023-03-31T15:19:21.789Z,98878.69
2023-03-31T15:22:00.481Z,98878.25
2023-03-31T15:24:30.573Z,98877.75
2023-03-31T15:27:02.778Z,98868.22
2023-03-31T15:29:48.982Z,98874.00
2023-03-31T15:32:45.684Z,98876.47
2023-03-31T15:35:32.091Z,98878.38
2023-03-31T15:38:00.557Z,98884.19
2023-03-31T15:40:36.183Z,98868.28
2023-03-31T15:45:53.467Z,98848.47
2023-03-31T15:48:29.098Z,98838.78
2023-03-31T15:51:16.924Z,98844.03
2023-03-31T15:53:49.427Z,98836.94
2023-03-31T15:56:42.973Z,98824.94
2023-03-31T15:59:54.613Z,98830.84
2023-03-31T16:02:25.615Z,98831.72
2023-03-31T16:04:57.568Z,98826.75
2023-03-31T16:07:28.686Z,98828.72
2023-03-31T16:09:59.560Z,98835.13
2023-03-31T16:12:30.943Z,98829.19
2023-03-31T16:15:02.402Z,98833.00
2023-03-31T16:17:31.105Z,98829.28
2023-03-31T16:20:07.409Z,98836.22
2023-03-31T16:22:39.840Z,98822.22
2023-03-31T16:25:14.769Z,98819.03
2023-03-31T16:28:07.759Z,98810.06
2023-03-31T16:30:37.834Z,98814.09
2023-03-31T16:33:10.179Z,98800.84
2023-03-31T16:35:41.596Z,98808.78
2023-03-31T16:38:10.769Z,98807.34
2023-03-31T16:40:40.788Z,98815.28
2023-03-31T16:43:25.481Z,98824.00
2023-03-31T16:45:57.411Z,98834.59
2023-03-31T16:48:26.444Z,98836.47
2023-03-31T16:50:55.819Z,98850.25
2023-03-31T16:53:25.937Z,98851.16
2023-03-31T16:55:52.579Z,98858.78
2023-03-31T16:58:19.222Z,98862.75
2023-03-31T17:00:46.783Z,98846.88
2023-03-31T17:03:14.236Z,98849.38
2023-03-31T17:05:49.391Z,98845.88
2023-03-31T17:08:16.487Z,98849.06
2023-03-31T17:10:51.580Z,98853.94
2023-03-31T17:13:18.346Z,98867.19
2023-03-31T17:15:45.013Z,98869.31
2023-03-31T17:18:12.351Z,98858.44
2023-03-31T17:20:39.222Z,98874.44
2023-03-31T17:23:05.923Z,98860.97
2023-03-31T17:25:32.705Z,98869.84
2023-03-31T17:28:00.562Z,98864.81
2023-03-31T17:30:27.526Z,98864.53
2023-03-31T17:32:54.349Z,98870.00
2023-03-31T17:35:21.587Z,98870.25
2023-03-31T17:37:49.721Z,98867.31
2023-03-31T17:40:16.578Z,98867.66
2023-03-31T17:42:43.272Z,98856.88
2023-03-31T17:45:10.992Z,98851.81
2023-03-31T17:47:37.709Z,98846.06
2023-03-31T17:50:04.633Z,98848.59
2023-03-31T17:52:31.246Z,98837.75
2023-03-31T17:54:57.926Z,98827.31
2023-03-31T17:57:24.732Z,98829.66
2023-03-31T17:59:51.516Z,98841.03
2023-03-31T18:02:18.276Z,98840.38
2023-03-31T18:04:44.974Z,98849.22
2023-03-31T18:07:11.667Z,98856.03
2023-03-31T18:09:38.705Z,98858.56
2023-03-31T18:12:05.862Z,98855.63
2023-03-31T18:14:32.569Z,98845.28
2023-03-31T18:16:59.386Z,98853.19
2023-03-31T18:19:26.033Z,98852.50
2023-03-31T18:21:52.874Z,98850.34
2023-03-31T18:24:19.513Z,98846.06
2023-03-31T18:26:46.239Z,98842.28
2023-03-31T18:29:12.883Z,98845.91
2023-03-31T18:31:39.535Z,98851.44
2023-03-31T18:34:06.251Z,98856.84
2023-03-31T18:36:34.121Z,98852.53
2023-03-31T18:39:01.098Z,98856.38
2023-03-31T18:41:27.749Z,98846.44
2023-03-31T18:43:54.518Z,98851.88
2023-03-31T18:46:23.512Z,98839.81
2023-03-31T18:48:50.274Z,98832.06
2023-03-31T18:51:17.240Z,98846.50
2023-03-31T18:53:44.141Z,98834.41
2023-03-31T18:56:10.858Z,98832.72
2023-03-31T18:58:39.996Z,98845.56
2023-03-31T19:01:06.646Z,98837.63
2023-03-31T19:03:33.361Z,98835.59
2023-03-31T19:06:01.861Z,98838.66
2023-03-31T19:08:29.603Z,98839.94
2023-03-31T19:11:08.491Z,98837.38
2023-03-31T19:13:35.231Z,98843.63
2023-03-31T19:16:01.866Z,98837.25
2023-03-31T19:18:29.030Z,98842.75
2023-03-31T19:20:59.332Z,98841.72
2023-03-31T19:23:26.283Z,98843.56
2023-03-31T19:25:54.020Z,98839.88
2023-03-31T19:28:22.814Z,98842.50
2023-03-31T19:30:51.125Z,98828.88
2023-03-31T19:33:18.370Z,98836.41
2023-03-31T19:35:46.653Z,98837.03
2023-03-31T19:38:14.547Z,98841.00
2023-03-31T19:40:42.729Z,98839.91
2023-03-31T19:43:22.777Z,98835.28
2023-03-31T19:45:51.444Z,98839.16
2023-03-31T19:48:18.093Z,98836.34
2023-03-31T19:50:53.267Z,98837.94
2023-03-31T19:53:21.546Z,98838.59
2023-03-31T19:55:59.772Z,98833.16
2023-03-31T19:58:27.851Z,98836.41
2023-03-31T20:00:55.831Z,98833.25
2023-03-31T20:03:25.691Z,98839.13
2023-03-31T20:05:52.513Z,98836.94
2023-03-31T20:08:19.154Z,98836.56
2023-03-31T20:10:45.986Z,98831.91
2023-03-31T20:13:12.711Z,98828.66
2023-03-31T20:15:40.435Z,98823.97
2023-03-31T20:18:07.614Z,98817.13
2023-03-31T20:20:34.303Z,98827.19
2023-03-31T20:23:00.921Z,98823.56
2023-03-31T20:25:27.669Z,98832.25
2023-03-31T20:27:54.418Z,98823.28
2023-03-31T20:30:21.031Z,98817.34
2023-03-31T20:32:47.787Z,98814.13
2023-03-31T20:35:14.608Z,98807.25
2023-03-31T20:37:41.386Z,98805.44
2023-03-31T20:40:08.459Z,98806.03
2023-03-31T20:42:35.061Z,98801.03
2023-03-31T20:45:01.736Z,98802.69
2023-03-31T20:47:28.433Z,98797.78
2023-03-31T20:49:55.106Z,98786.34
2023-03-31T20:52:21.740Z,98793.28
2023-03-31T20:54:48.365Z,98774.06
2023-03-31T20:57:15.051Z,98775.91
2023-03-31T20:59:41.680Z,98772.41
2023-03-31T21:02:12.434Z,98775.91
2023-03-31T21:04:39.036Z,98772.50
2023-03-31T21:07:05.633Z,98766.47
2023-03-31T21:09:32.213Z,98773.63
2023-03-31T21:11:58.870Z,98759.69
2023-03-31T21:14:25.559Z,98772.19
2023-03-31T21:16:52.302Z,98760.06
2023-03-31T21:19:18.996Z,98766.31
2023-03-31T21:21:45.691Z,98762.34
2023-03-31T21:24:15.359Z,98756.00
2023-03-31T21:26:42.277Z,98760.47
2023-03-31T21:29:09.047Z,98759.47
2023-03-31T21:31:35.784Z,98745.41
2023-03-31T21:34:02.533Z,98761.44
2023-03-31T21:36:29.216Z,98754.81
2023-03-31T21:38:56.675Z,98750.28
2023-03-31T21:41:26.568Z,98752.25
2023-03-31T21:43:53.173Z,98749.47
2023-03-31T21:46:24.057Z,98750.50
2023-03-31T21:48:50.800Z,98759.94
2023-03-31T21:51:18.798Z,98758.63
2023-03-31T21:53:45.626Z,98762.34
2023-03-31T21:56:12.271Z,98762.66
2023-03-31T21:58:38.934Z,98761.34
2023-03-31T22:01:05.900Z,98770.72
2023-03-31T22:03:33.673Z,98765.03
2023-03-31T22:06:05.130Z,98773.06
2023-03-31T22:08:31.795Z,98771.56
2023-03-31T22:11:00.556Z,98773.84
2023-03-31T22:13:28.738Z,98776.03
2023-03-31T22:15:56.062Z,98764.66
2023-03-31T22:18:23.143Z,98777.41
2023-03-31T22:20:50.660Z,98783.59
2023-03-31T22:23:17.875Z,98778.41
2023-03-31T22:25:44.521Z,98769.28
2023-03-31T22:28:11.460Z,98773.44
2023-03-31T22:30:38.212Z,98773.63
2023-03-31T22:33:05.149Z,98756.50
2023-03-31T22:35:32.037Z,98757.72
2023-03-31T22:37:59.072Z,98756.13
2023-03-31T22:40:25.933Z,98755.16
2023-03-31T22:42:52.565Z,98743.81
2023-03-31T22:45:19.191Z,98744.78
2023-03-31T22:47:46.016Z,98745.28
2023-03-31T22:50:12.653Z,98749.78
2023-03-31T22:52:39.296Z,98756.94
2023-03-31T22:55:06.449Z,98758.09
2023-03-31T22:57:33.499Z,98758.06
2023-03-31T23:00:00.394Z,98743.63
2023-03-31T23:02:27.032Z,98740.13
2023-03-31T23:04:53.637Z,98736.00
2023-03-31T23:07:20.321Z,98745.66
2023-03-31T23:09:46.971Z,98747.16
2023-03-31T23:12:13.610Z,98734.94
2023-03-31T23:14:40.248Z,98735.63
2023-03-31T23:17:07.030Z,98735.34
2023-03-31T23:19:33.919Z,98730.75
2023-03-31T23:22:00.562Z,98731.91
2023-03-31T23:24:27.241Z,98720.06
2023-03-31T23:26:53.966Z,98727.81
2023-03-31T23:29:20.629Z,98725.13
2023-03-31T23:31:47.306Z,98732.44
2023-03-31T23:34:14.011Z,98745.53
2023-03-31T23:36:40.802Z,98738.75
2023-03-31T23:39:07.444Z,98744.38
2023-03-31T23:41:34.651Z,98739.34
2023-03-31T23:44:01.411Z,98741.06
2023-03-31T23:46:28.291Z,98742.59
2023-03-31T23:48:55.705Z,98742.81
2023-03-31T23:51:22.334Z,98747.69
2023-03-31T23:53:48.976Z,98745.44
2023-03-31T23:56:15.616Z,98746.38
2023-03-31T23:58:42.728Z,98745.09
